Time;durP1;ratioP1;P1;durP2;ratioP2;P2;SDS_P1;SDS_P2;PMS_P1;PMS_P2;Temp;Humidity;BMP_temperature;BMP_pressure;BME280_temperature;BME280_humidity;BME280_pressure;Samples;Min_cycle;Max_cycle;Signal;HPM_P1;HPM_P2
2023/03/18 00:00:00;;;;;;;;;;;;;;;13.19;69.45;100823.97;20464809;28;19981;-58
2023/03/18 00:10:21;;;;;;;;;;;;;;;13.20;67.45;100817.91;20450436;28;19953;-57
2023/03/18 00:20:44;;;;;;;;;;;;;;;13.28;68.53;100827.94;20479546;28;20295;-58
2023/03/18 00:31:07;;;;;;;;;;;;;;;13.36;67.41;100829.34;20480347;28;19955;-57
2023/03/18 00:41:31;;;;;;;;;;;;;;;13.19;69.81;100849.13;20480847;28;19974;-57
2023/03/18 00:51:53;;;;;;;;;;;;;;;12.91;71.81;100845.00;20464827;28;19929;-58
2023/03/18 01:02:14;;;;;;;;;;;;;;;12.77;72.46;100831.72;20458017;28;19926;-57
2023/03/18 01:12:36;;;;;;;;;;;;;;;12.69;72.91;100833.75;20473514;28;19927;-58
2023/03/18 01:23:00;;;;;;;;;;;;;;;12.67;72.53;100840.75;20463831;28;20394;-58
2023/03/18 01:33:22;;;;;;;;;;;;;;;12.61;74.05;100855.72;20453723;28;20711;-56
2023/03/18 01:43:43;;;;;;;;;;;;;;;12.56;73.91;100852.47;20461706;28;19927;-57
2023/03/18 01:54:06;;;;;;;;;;;;;;;12.55;73.93;100851.59;20462954;29;20427;-57
2023/03/18 02:04:30;;;;;;;;;;;;;;;12.54;73.86;100839.53;20447398;28;19926;-57
2023/03/18 02:14:52;;;;;;;;;;;;;;;12.56;73.65;100836.88;20464112;28;19922;-59
2023/03/18 02:25:25;;;;;;;;;;;;;;;12.58;73.27;100830.72;20462205;28;19970;-57
2023/03/18 02:35:50;;;;;;;;;;;;;;;12.60;72.89;100828.91;20443845;28;20082;-56
2023/03/18 02:46:33;;;;;;;;;;;;;;;12.64;72.55;100850.41;20465761;28;19922;-57
2023/03/18 02:56:54;;;;;;;;;;;;;;;12.66;72.92;100853.78;20456523;28;20346;-57
2023/03/18 03:07:16;;;;;;;;;;;;;;;12.67;72.69;100866.72;20467736;28;19970;-58
2023/03/18 03:17:38;;;;;;;;;;;;;;;12.62;73.04;100867.78;20459568;28;20379;-57
2023/03/18 03:27:59;;;;;;;;;;;;;;;12.58;72.82;100877.44;21454037;23;21322;-58
2023/03/18 03:38:21;;;;;;;;;;;;;;;12.52;73.15;100888.06;20476174;28;19933;-59
2023/03/18 03:48:43;;;;;;;;;;;;;;;12.48;73.68;100896.00;20507629;28;19926;-58
2023/03/18 03:59:05;;;;;;;;;;;;;;;12.43;74.28;100903.13;20518663;28;19930;-59
2023/03/18 04:09:26;;;;;;;;;;;;;;;12.35;74.21;100911.19;20514194;28;20325;-58
2023/03/18 04:19:48;;;;;;;;;;;;;;;12.28;74.21;100917.50;20522684;28;19985;-58
2023/03/18 04:30:10;;;;;;;;;;;;;;;12.08;75.13;100918.22;20521168;28;19957;-58
2023/03/18 04:40:31;;;;;;;;;;;;;;;11.96;75.47;100935.91;20539094;28;19930;-58
2023/03/18 04:50:53;;;;;;;;;;;;;;;11.94;76.19;100943.75;20534409;28;19923;-58
2023/03/18 05:01:15;;;;;;;;;;;;;;;11.94;75.37;100943.75;20523840;28;19925;-59
2023/03/18 05:11:37;;;;;;;;;;;;;;;11.89;75.86;100937.03;20532060;28;20016;-59
2023/03/18 05:21:59;;;;;;;;;;;;;;;11.86;75.26;100950.97;20537369;28;19929;-58
2023/03/18 05:32:20;;;;;;;;;;;;;;;11.85;75.75;100957.03;20527795;28;20576;-60
2023/03/18 05:42:41;;;;;;;;;;;;;;;11.80;76.17;100968.44;20524303;28;20388;-59
2023/03/18 05:53:16;;;;;;;;;;;;;;;11.84;75.20;100976.09;20517087;28;19922;-59
2023/03/18 06:03:39;;;;;;;;;;;;;;;11.79;75.51;100979.72;20518162;28;19946;-59
2023/03/18 06:14:03;;;;;;;;;;;;;;;11.83;75.82;100989.09;20517737;28;19934;-59
2023/03/18 06:24:25;;;;;;;;;;;;;;;11.83;76.46;101004.66;20534125;28;20289;-58
2023/03/18 06:34:46;;;;;;;;;;;;;;;11.82;77.04;101018.50;20517860;28;19933;-59
2023/03/18 06:45:08;;;;;;;;;;;;;;;11.74;78.62;101028.25;20516480;28;19985;-59
2023/03/18 06:55:30;;;;;;;;;;;;;;;11.62;79.56;101045.03;20519044;28;20369;-58
2023/03/18 07:05:53;;;;;;;;;;;;;;;11.56;80.81;101041.75;20510254;28;20012;-58
2023/03/18 07:16:14;;;;;;;;;;;;;;;11.51;82.11;101054.03;20514515;28;19926;-57
2023/03/18 07:26:36;;;;;;;;;;;;;;;11.53;82.47;101067.78;20517717;28;19930;-58
2023/03/18 07:36:57;;;;;;;;;;;;;;;11.57;81.66;101079.75;20517895;28;20362;-57
2023/03/18 07:47:19;;;;;;;;;;;;;;;11.64;83.15;101096.81;20518836;28;19969;-59
2023/03/18 07:57:41;;;;;;;;;;;;;;;11.68;83.23;101101.06;20502002;28;19930;-57
2023/03/18 08:08:04;;;;;;;;;;;;;;;11.76;87.07;101112.03;20518725;28;19965;-58
2023/03/18 08:18:25;;;;;;;;;;;;;;;11.82;82.93;101127.41;20531883;28;20398;-59
2023/03/18 08:28:47;;;;;;;;;;;;;;;11.95;82.92;101128.72;20530403;28;20009;-59
2023/03/18 08:39:09;;;;;;;;;;;;;;;12.08;82.87;101156.00;20538669;28;19951;-59
2023/03/18 08:49:32;;;;;;;;;;;;;;;12.38;82.24;101165.38;20525609;28;20002;-58
2023/03/18 08:59:53;;;;;;;;;;;;;;;12.72;84.37;101154.75;20532928;28;19926;-59
2023/03/18 09:10:16;;;;;;;;;;;;;;;13.03;81.60;101143.31;20541064;28;19929;-60
2023/03/18 09:20:39;;;;;;;;;;;;;;;13.36;79.07;101140.41;20513910;28;19971;-58
2023/03/18 09:31:00;;;;;;;;;;;;;;;13.56;78.05;101149.19;20534691;28;20579;-59
2023/03/18 09:41:47;;;;;;;;;;;;;;;13.59;78.42;101166.41;20524901;28;19932;-60
2023/03/18 09:52:21;;;;;;;;;;;;;;;13.68;78.16;101176.50;20541388;28;19969;-60
2023/03/18 10:02:54;;;;;;;;;;;;;;;13.79;78.25;101189.94;20532341;28;19938;-59
2023/03/18 10:13:16;;;;;;;;;;;;;;;13.90;77.91;101187.75;20516339;28;19922;-59
2023/03/18 10:23:43;;;;;;;;;;;;;;;13.90;78.75;101192.97;20524304;28;19956;-59
2023/03/18 10:34:05;;;;;;;;;;;;;;;14.02;77.33;101202.91;20531142;28;20312;-60
2023/03/18 10:44:33;;;;;;;;;;;;;;;14.18;77.10;101217.03;20522169;28;19927;-59
2023/03/18 10:54:54;;;;;;;;;;;;;;;14.38;76.59;101216.28;20510734;28;19934;-60
2023/03/18 11:05:21;;;;;;;;;;;;;;;14.52;76.12;101209.63;20523971;28;19962;-60
2023/03/18 11:15:48;;;;;;;;;;;;;;;14.61;76.65;101209.28;20526193;28;19984;-60
2023/03/18 11:26:16;;;;;;;;;;;;;;;14.73;77.20;101218.34;20516593;28;19922;-60
2023/03/18 11:36:38;;;;;;;;;;;;;;;15.00;76.46;101223.25;20520701;28;20712;-60
2023/03/18 11:47:05;;;;;;;;;;;;;;;15.08;75.82;101215.13;20515749;28;19985;-59
2023/03/18 11:57:45;;;;;;;;;;;;;;;15.21;75.36;101216.28;20516785;28;19992;-58
2023/03/18 12:08:13;;;;;;;;;;;;;;;15.39;74.82;101219.84;20518638;28;19922;-60
2023/03/18 12:18:55;;;;;;;;;;;;;;;15.51;74.22;101230.63;20520959;28;19995;-60
2023/03/18 12:29:29;;;;;;;;;;;;;;;15.74;72.72;101216.56;20528369;28;19957;-59
2023/03/18 12:39:58;;;;;;;;;;;;;;;15.94;71.23;101213.91;20509487;28;20008;-59
2023/03/18 12:50:25;;;;;;;;;;;;;;;16.20;70.15;101205.72;20523008;28;19954;-57
2023/03/18 13:00:58;;;;;;;;;;;;;;;16.13;70.44;101196.47;20526803;28;20281;-59
2023/03/18 13:11:35;;;;;;;;;;;;;;;16.38;69.85;101209.22;20520061;28;19926;-58
2023/03/18 13:22:08;;;;;;;;;;;;;;;16.45;70.74;101187.09;20526397;28;20438;-60
2023/03/18 13:32:48;;;;;;;;;;;;;;;16.47;69.58;101185.25;20534197;28;19993;-59
2023/03/18 13:43:14;;;;;;;;;;;;;;;16.73;69.40;101174.41;20530293;28;19926;-58
2023/03/18 13:53:40;;;;;;;;;;;;;;;16.82;68.67;101176.56;20533709;28;20559;-57
2023/03/18 14:04:14;;;;;;;;;;;;;;;16.87;69.10;101172.78;20526527;28;20333;-59
2023/03/18 14:14:55;;;;;;;;;;;;;;;17.12;66.75;101166.31;20508400;28;19927;-59
2023/03/18 14:25:17;;;;;;;;;;;;;;;16.95;65.32;101170.66;20527921;28;20005;-59
2023/03/18 14:35:47;;;;;;;;;;;;;;;17.18;66.12;101169.44;20533794;28;19929;-60
2023/03/18 14:46:17;;;;;;;;;;;;;;;17.47;65.21;101166.19;20518892;28;19928;-59
2023/03/18 14:56:40;;;;;;;;;;;;;;;17.45;66.18;101164.56;20520705;28;20270;-59
2023/03/18 15:07:06;;;;;;;;;;;;;;;17.45;66.10;101160.16;20522375;28;20373;-59
2023/03/18 15:17:27;;;;;;;;;;;;;;;17.39;65.81;101160.50;20502254;28;19922;-59
2023/03/18 15:27:48;;;;;;;;;;;;;;;17.49;66.85;101145.19;20503422;28;19937;-61
2023/03/18 15:38:18;;;;;;;;;;;;;;;17.60;64.44;101143.69;20512145;28;19948;-59
2023/03/18 15:48:42;;;;;;;;;;;;;;;17.26;66.69;101151.59;20516350;28;19949;-59
2023/03/18 15:59:05;;;;;;;;;;;;;;;17.05;66.83;101145.72;20513358;28;19971;-61
2023/03/18 16:09:27;;;;;;;;;;;;;;;16.89;68.59;101151.81;20518146;28;19923;-59
2023/03/18 16:19:53;;;;;;;;;;;;;;;16.84;68.38;101159.03;20506469;28;19930;-60
2023/03/18 16:30:19;;;;;;;;;;;;;;;16.76;68.99;101163.78;20539619;28;20380;-59
2023/03/18 16:40:41;;;;;;;;;;;;;;;16.57;70.30;101173.50;20529162;28;19977;-59
2023/03/18 16:51:03;;;;;;;;;;;;;;;16.44;70.74;101181.03;20538157;28;19926;-60
2023/03/18 17:01:26;;;;;;;;;;;;;;;16.38;69.41;101183.94;20526850;28;19922;-60
2023/03/18 17:11:48;;;;;;;;;;;;;;;16.28;70.57;101197.53;20529669;28;19922;-60
2023/03/18 17:22:18;;;;;;;;;;;;;;;16.16;71.62;101200.69;20530868;28;20382;-60
2023/03/18 17:32:40;;;;;;;;;;;;;;;15.98;72.04;101192.81;20521568;28;20308;-59
2023/03/18 17:43:01;;;;;;;;;;;;;;;15.83;70.79;101208.31;20536812;28;19926;-60
2023/03/18 17:53:23;;;;;;;;;;;;;;;15.80;71.52;101205.88;20530409;28;19926;-59
2023/03/18 18:03:44;;;;;;;;;;;;;;;15.68;71.90;101222.91;20529097;28;19926;-59
2023/03/18 18:14:21;;;;;;;;;;;;;;;15.56;72.20;101227.84;20523380;28;19926;-59
2023/03/18 18:24:44;;;;;;;;;;;;;;;15.50;73.30;101228.09;20531711;28;19930;-59
2023/03/18 18:35:06;;;;;;;;;;;;;;;15.47;72.96;101229.09;20517311;28;20001;-59
2023/03/18 18:45:28;;;;;;;;;;;;;;;15.39;72.96;101236.38;20523434;28;19926;-59
2023/03/18 18:56:00;;;;;;;;;;;;;;;15.36;72.19;101230.44;20512364;28;19945;-60
2023/03/18 19:06:30;;;;;;;;;;;;;;;15.32;73.10;101231.47;20537115;28;20425;-60
2023/03/18 19:16:52;;;;;;;;;;;;;;;15.27;73.39;101221.25;20525494;28;20397;-58
2023/03/18 19:27:25;;;;;;;;;;;;;;;15.16;74.56;101238.25;20537325;28;19965;-59
2023/03/18 19:37:47;;;;;;;;;;;;;;;15.04;75.29;101245.69;20503664;28;20300;-59
2023/03/18 19:48:13;;;;;;;;;;;;;;;14.89;75.71;101248.06;20516559;28;19922;-59
2023/03/18 19:58:35;;;;;;;;;;;;;;;14.77;76.26;101272.00;20515221;28;19978;-59
2023/03/18 20:08:57;;;;;;;;;;;;;;;14.69;76.16;101282.75;20527545;28;19933;-59
2023/03/18 20:19:19;;;;;;;;;;;;;;;14.60;76.21;101290.91;20545829;28;19922;-60
2023/03/18 20:29:41;;;;;;;;;;;;;;;14.58;76.73;101292.72;20527510;28;19988;-58
2023/03/18 20:40:03;;;;;;;;;;;;;;;14.39;77.94;101299.56;20530365;28;20365;-60
2023/03/18 20:50:29;;;;;;;;;;;;;;;14.22;77.38;101294.09;20531553;28;19949;-59
2023/03/18 21:00:51;;;;;;;;;;;;;;;14.03;78.01;101295.69;20544264;28;20028;-61
2023/03/18 21:11:18;;;;;;;;;;;;;;;13.76;78.45;101300.16;20514920;28;19989;-58
2023/03/18 21:21:40;;;;;;;;;;;;;;;13.67;78.44;101297.88;20519470;28;20002;-59
2023/03/18 21:32:01;;;;;;;;;;;;;;;13.50;78.71;101300.19;20525570;28;19922;-59
2023/03/18 21:42:24;;;;;;;;;;;;;;;13.29;81.05;101295.75;20538279;28;20386;-59
2023/03/18 21:52:46;;;;;;;;;;;;;;;13.12;79.59;101292.84;20537714;28;19923;-59
2023/03/18 22:03:14;;;;;;;;;;;;;;;12.97;79.90;101291.56;20533413;28;20362;-59
2023/03/18 22:13:36;;;;;;;;;;;;;;;12.82;79.71;101297.25;20519545;28;19969;-59
2023/03/18 22:23:59;;;;;;;;;;;;;;;12.67;80.42;101282.13;20521650;28;19953;-59
2023/03/18 22:34:21;;;;;;;;;;;;;;;12.54;80.74;101286.03;20530172;28;19970;-60
2023/03/18 22:44:43;;;;;;;;;;;;;;;12.47;80.21;101288.84;20522481;28;20051;-58
2023/03/18 22:55:13;;;;;;;;;;;;;;;12.31;80.90;101288.44;20526361;28;19993;-59
2023/03/18 23:05:35;;;;;;;;;;;;;;;12.13;80.78;101274.28;20533487;28;19926;-59
2023/03/18 23:15:57;;;;;;;;;;;;;;;12.03;81.39;101277.19;20519094;28;20373;-58
2023/03/18 23:26:19;;;;;;;;;;;;;;;11.88;81.88;101262.06;20512304;28;19922;-59
2023/03/18 23:36:41;;;;;;;;;;;;;;;11.72;82.37;101266.00;20517273;28;19929;-60
2023/03/18 23:47:03;;;;;;;;;;;;;;;11.62;82.70;101269.69;20508843;28;19922;-59
2023/03/18 23:57:24;;;;;;;;;;;;;;;11.60;82.88;101274.06;20519784;28;19926;-59
